Veidnes — LLSD — position and weather

sailwx.info

Track history (hours):
 
Tides and Currents Weather Stations Pressure Air Temp Water Temp Dewpoint Dewpoint Depression Visibility Wind Speed Wind Dir Waves Ship Positions

Veidnes

Last reported at 2015-May-20 12:32 UTC. Time now 2015-May-27 03:47 UTC.
Position N 69°35' E 018°51'.

Length 50 m; draft 5 m.

Type: Cargo ship. MMSI: 259237000.

Date/timePositionNaut miles runAvg speedWind from/ knotsBaromVisibWave heightAir tempDewpointWater temp
2015-May-20 12:32N 69°35' E 018°51'4 4.1
2015-May-20 11:33N 69°39' E 018°58'0 0.0
2015-May-20 10:33N 69°39' E 018°58'2 2.2
2015-May-20 09:33N 69°41' E 019°01'38 1.1
2015-May-18 22:10N 69°36' E 017°11'127 7.9
2015-May-18 06:12N 67°43' E 014°31'16 9.5
2015-May-18 04:33N 67°28' E 014°28'9 9.1
2015-May-18 03:33N 67°19' E 014°19'4 4.4
2015-May-18 02:33N 67°15' E 014°25'8 1.2
2015-May-17 20:03N 67°19' E 014°44'4 8.5
2015-May-17 19:34N 67°16' E 014°35'5 5.0
2015-May-17 18:33N 67°17' E 014°22'0 0.2
2015-May-17 17:33N 67°17' E 014°23'0 0.0
2015-May-17 16:33N 67°17' E 014°23'0 0.0
2015-May-17 15:33N 67°17' E 014°23'0 0.0
2015-May-17 14:33N 67°17' E 014°23'0 0.0
2015-May-17 13:33N 67°17' E 014°23'0 0.0
2015-May-17 12:33N 67°17' E 014°23'0 0.0
2015-May-17 11:33N 67°17' E 014°23'0 0.0
2015-May-17 10:33N 67°17' E 014°23'0 0.0
2015-May-17 09:33N 67°17' E 014°23'0 0.0
2015-May-17 08:33N 67°17' E 014°23'0 0.0
2015-May-17 07:34N 67°17' E 014°23'0 0.0
2015-May-17 06:33N 67°17' E 014°23'0 0.0
2015-May-17 05:33N 67°17' E 014°23'0 0.0
2015-May-17 04:33N 67°17' E 014°23'0 0.0
2015-May-17 03:33N 67°17' E 014°23'0 0.0
2015-May-17 02:33N 67°17' E 014°23'0 0.0
2015-May-17 01:33N 67°17' E 014°23'0 0.0
2015-May-17 00:33N 67°17' E 014°23'0 0.0
2015-May-16 23:33N 67°17' E 014°23'0 0.0
2015-May-16 22:33N 67°17' E 014°23'0 0.0
2015-May-16 21:33N 67°17' E 014°23'0 0.0
2015-May-16 20:33N 67°17' E 014°23'0 0.0
2015-May-16 19:33N 67°17' E 014°23'0 0.0
2015-May-16 18:33N 67°17' E 014°23'0 0.0
2015-May-16 17:33N 67°17' E 014°23'0 0.0
2015-May-16 16:33N 67°17' E 014°23'0 0.0
2015-May-16 15:33N 67°17' E 014°23'0 0.0
2015-May-16 14:33N 67°17' E 014°23'6 6.2
2015-May-16 13:33N 67°23' E 014°25'1210.5
2015-May-16 12:23N 67°35' E 014°35'  
2015-May-12 14:32N 67°58' E 014°21'1110.2
2015-May-12 13:27N 67°48' E 014°30'15 8.0
2015-May-12 11:33N 67°38' E 015°01'3 2.7
2015-May-12 10:33N 67°39' E 015°07'0 0.0
2015-May-12 09:33N 67°39' E 015°07'4 3.9
2015-May-12 08:33N 67°38' E 014°57'11 3.5
2015-May-12 05:21N 67°46' E 014°36'7 9.0
2015-May-12 04:33N 67°53' E 014°33'12 0.7
2015-May-11 12:15N 67°42' E 014°43'6 8.1
2015-May-11 11:33N 67°38' E 014°55'5 4.7
2015-May-11 10:33N 67°39' E 015°07'0 0.0
2015-May-11 09:33N 67°39' E 015°07'0 0.0
2015-May-11 08:32N 67°39' E 015°07'0 0.0
2015-May-11 07:16N 67°39' E 015°07'0 0.0
2015-May-11 06:30N 67°39' E 015°07'4 4.0
2015-May-11 05:33N 67°38' E 014°57'10 9.8
2015-May-11 04:32N 67°42' E 014°34'  
Track history (hours):
 
Tides and Currents Weather Stations Pressure Air Temp Water Temp Dewpoint Dewpoint Depression Visibility Wind Speed Wind Dir Waves Ship Positions

Veidnes

Last reported at 2015-May-20 12:32 UTC. Time now 2015-May-27 03:47 UTC.
Position N 69°35' E 018°51'.

Length 50 m; draft 5 m.

Type: Cargo ship. MMSI: 259237000.

Date/timePositionNaut miles runAvg speedWind from/ knotsBaromVisibWave heightAir tempDewpointWater temp
2015-May-20 12:32N 69°35' E 018°51'4 4.1
2015-May-20 11:33N 69°39' E 018°58'0 0.0
2015-May-20 10:33N 69°39' E 018°58'2 2.2
2015-May-20 09:33N 69°41' E 019°01'38 1.1
2015-May-18 22:10N 69°36' E 017°11'127 7.9
2015-May-18 06:12N 67°43' E 014°31'16 9.5
2015-May-18 04:33N 67°28' E 014°28'9 9.1
2015-May-18 03:33N 67°19' E 014°19'4 4.4
2015-May-18 02:33N 67°15' E 014°25'8 1.2
2015-May-17 20:03N 67°19' E 014°44'4 8.5
2015-May-17 19:34N 67°16' E 014°35'5 5.0
2015-May-17 18:33N 67°17' E 014°22'0 0.2
2015-May-17 17:33N 67°17' E 014°23'0 0.0
2015-May-17 16:33N 67°17' E 014°23'0 0.0
2015-May-17 15:33N 67°17' E 014°23'0 0.0
2015-May-17 14:33N 67°17' E 014°23'0 0.0
2015-May-17 13:33N 67°17' E 014°23'0 0.0
2015-May-17 12:33N 67°17' E 014°23'0 0.0
2015-May-17 11:33N 67°17' E 014°23'0 0.0
2015-May-17 10:33N 67°17' E 014°23'0 0.0
2015-May-17 09:33N 67°17' E 014°23'0 0.0
2015-May-17 08:33N 67°17' E 014°23'0 0.0
2015-May-17 07:34N 67°17' E 014°23'0 0.0
2015-May-17 06:33N 67°17' E 014°23'0 0.0
2015-May-17 05:33N 67°17' E 014°23'0 0.0
2015-May-17 04:33N 67°17' E 014°23'0 0.0
2015-May-17 03:33N 67°17' E 014°23'0 0.0
2015-May-17 02:33N 67°17' E 014°23'0 0.0
2015-May-17 01:33N 67°17' E 014°23'0 0.0
2015-May-17 00:33N 67°17' E 014°23'0 0.0
2015-May-16 23:33N 67°17' E 014°23'0 0.0
2015-May-16 22:33N 67°17' E 014°23'0 0.0
2015-May-16 21:33N 67°17' E 014°23'0 0.0
2015-May-16 20:33N 67°17' E 014°23'0 0.0
2015-May-16 19:33N 67°17' E 014°23'0 0.0
2015-May-16 18:33N 67°17' E 014°23'0 0.0
2015-May-16 17:33N 67°17' E 014°23'0 0.0
2015-May-16 16:33N 67°17' E 014°23'0 0.0
2015-May-16 15:33N 67°17' E 014°23'0 0.0
2015-May-16 14:33N 67°17' E 014°23'6 6.2
2015-May-16 13:33N 67°23' E 014°25'1210.5
2015-May-16 12:23N 67°35' E 014°35'  
2015-May-12 14:32N 67°58' E 014°21'1110.2
2015-May-12 13:27N 67°48' E 014°30'15 8.0
2015-May-12 11:33N 67°38' E 015°01'3 2.7
2015-May-12 10:33N 67°39' E 015°07'0 0.0
2015-May-12 09:33N 67°39' E 015°07'4 3.9
2015-May-12 08:33N 67°38' E 014°57'11 3.5
2015-May-12 05:21N 67°46' E 014°36'7 9.0
2015-May-12 04:33N 67°53' E 014°33'12 0.7
2015-May-11 12:15N 67°42' E 014°43'6 8.1
2015-May-11 11:33N 67°38' E 014°55'5 4.7
2015-May-11 10:33N 67°39' E 015°07'0 0.0
2015-May-11 09:33N 67°39' E 015°07'0 0.0
2015-May-11 08:32N 67°39' E 015°07'0 0.0
2015-May-11 07:16N 67°39' E 015°07'0 0.0
2015-May-11 06:30N 67°39' E 015°07'4 4.0
2015-May-11 05:33N 67°38' E 014°57'10 9.8
2015-May-11 04:32N 67°42' E 014°34'  

Dump ship's entire track history